Time;durP1;ratioP1;P1;durP2;ratioP2;P2;SDS_P1;SDS_P2;PMS_P1;PMS_P2;Temp;Humidity;BMP_temperature;BMP_pressure;BME280_temperature;BME280_humidity;BME280_pressure;Samples;Min_cycle;Max_cycle;Signal;HPM_P1;HPM_P2
2022/06/09 00:01:40;;;;;;;;;;;;;;;-149.78;100.00;50236.75;5089978;28;19916;-70
2022/06/09 00:04:11;;;;;;;;;;;;;;;-149.78;100.00;50221.13;5089148;28;19928;-71
2022/06/09 00:06:58;;;;;;;;;;;;;;;-149.78;100.00;50209.38;5082116;28;19920;-71
2022/06/09 00:09:28;;;;;;;;;;;;;;;-149.78;100.00;50244.59;5089967;28;19920;-71
2022/06/09 00:11:54;;;;;;;;;;;;;;;-149.78;100.00;50228.94;5076140;28;19943;-71
2022/06/09 00:14:20;;;;;;;;;;;;;;;-149.78;100.00;50244.59;5073215;28;19916;-71
2022/06/09 00:16:46;;;;;;;;;;;;;;;-149.78;100.00;50268.03;5083411;28;20015;-71
2022/06/09 00:19:12;;;;;;;;;;;;;;;-149.78;100.00;50283.69;5081645;28;20355;-71
2022/06/09 00:21:37;;;;;;;;;;;;;;;-149.78;100.00;50213.28;5092910;28;20267;-70
2022/06/09 00:24:04;;;;;;;;;;;;;;;-149.78;100.00;50271.97;5090251;28;20286;-70
2022/06/09 00:26:30;;;;;;;;;;;;;;;-149.78;100.00;50260.22;5075971;28;20010;-71
2022/06/09 00:28:55;;;;;;;;;;;;;;;-149.78;100.00;50248.50;5078147;28;20008;-71
2022/06/09 00:31:21;;;;;;;;;;;;;;;-149.78;100.00;50268.03;5077006;28;20026;-71
2022/06/09 00:33:46;;;;;;;;;;;;;;;-149.78;100.00;50252.41;5072464;28;19959;-71
2022/06/09 00:36:12;;;;;;;;;;;;;;;-149.78;100.00;50244.59;5070505;28;20003;-71
2022/06/09 00:38:38;;;;;;;;;;;;;;;-149.78;100.00;50228.94;5077572;28;19923;-71
2022/06/09 00:41:03;;;;;;;;;;;;;;;-149.78;100.00;50273.91;5081463;28;19924;-71
2022/06/09 00:43:30;;;;;;;;;;;;;;;-149.78;100.00;50268.03;5075016;28;19969;-70
2022/06/09 00:46:10;;;;;;;;;;;;;;;-149.78;100.00;50230.88;5083203;28;20360;-71
2022/06/09 00:48:44;;;;;;;;;;;;;;;-149.78;100.00;50279.78;5072878;28;20272;-70
2022/06/09 00:51:13;;;;;;;;;;;;;;;-149.78;100.00;50271.97;5089616;28;20048;-71
2022/06/09 00:53:40;;;;;;;;;;;;;;;-149.78;100.00;50236.75;5084560;28;20342;-71
2022/06/09 00:56:07;;;;;;;;;;;;;;;-149.78;100.00;50232.84;5087275;28;19916;-70
2022/06/09 00:58:35;;;;;;;;;;;;;;;-149.78;100.00;50283.69;5090287;28;19927;-71
2022/06/09 01:01:04;;;;;;;;;;;;;;;-149.78;100.00;50248.50;5073637;28;19961;-71
2022/06/09 01:03:33;;;;;;;;;;;;;;;-149.78;100.00;50232.84;5082497;28;19936;-71
2022/06/09 01:06:04;;;;;;;;;;;;;;;-149.78;100.00;50248.50;5073279;28;19923;-71
2022/06/09 01:08:31;;;;;;;;;;;;;;;-149.78;100.00;50254.34;5070287;28;19973;-71
2022/06/09 01:10:56;;;;;;;;;;;;;;;-149.78;100.00;50299.34;5086702;28;19923;-71
2022/06/09 01:13:22;;;;;;;;;;;;;;;-149.78;100.00;50256.31;5072691;28;19921;-71
2022/06/09 01:15:51;;;;;;;;;;;;;;;-149.78;100.00;50248.50;5069508;28;19923;-70
2022/06/09 01:18:24;;;;;;;;;;;;;;;-149.78;100.00;50240.66;5071640;28;19923;-71
2022/06/09 01:20:57;;;;;;;;;;;;;;;-149.78;100.00;50256.31;5073753;28;19962;-70
2022/06/09 01:23:29;;;;;;;;;;;;;;;-149.78;100.00;50236.75;5088355;28;19959;-71
2022/06/09 01:25:54;;;;;;;;;;;;;;;-149.78;100.00;50262.19;5071533;28;20299;-70
2022/06/09 01:28:38;;;;;;;;;;;;;;;-149.78;100.00;50271.97;5072515;28;20019;-71
2022/06/09 01:31:07;;;;;;;;;;;;;;;-149.78;100.00;50271.97;5092638;28;19956;-71
2022/06/09 01:33:44;;;;;;;;;;;;;;;-149.78;100.00;50273.91;5085401;28;19999;-70
2022/06/09 01:36:15;;;;;;;;;;;;;;;-149.78;100.00;50258.28;5082511;28;19920;-71
2022/06/09 01:38:45;;;;;;;;;;;;;;;-149.78;100.00;50275.88;5085541;28;19917;-71
2022/06/09 01:41:11;;;;;;;;;;;;;;;-149.78;100.00;50285.66;5082352;28;19920;-71
2022/06/09 01:43:36;;;;;;;;;;;;;;;-149.78;100.00;50252.41;5078749;28;19946;-71
2022/06/09 01:46:07;;;;;;;;;;;;;;;-149.78;100.00;50271.97;5085338;28;19916;-71
2022/06/09 01:48:34;;;;;;;;;;;;;;;-149.78;100.00;50238.72;5073358;28;19967;-71
2022/06/09 01:51:11;;;;;;;;;;;;;;;-149.78;100.00;50260.22;5071831;28;20376;-71
2022/06/09 01:53:44;;;;;;;;;;;;;;;-149.78;100.00;50271.97;5068724;28;19920;-71
2022/06/09 01:56:19;;;;;;;;;;;;;;;-149.78;100.00;50279.78;5081306;28;19924;-70
2022/06/09 01:58:49;;;;;;;;;;;;;;;-149.78;100.00;50244.59;5090660;28;19923;-71
2022/06/09 02:01:17;;;;;;;;;;;;;;;-149.78;100.00;50271.97;5077105;28;19981;-70
2022/06/09 02:03:44;;;;;;;;;;;;;;;-149.78;100.00;50252.41;5091380;28;20034;-71
2022/06/09 02:06:10;;;;;;;;;;;;;;;-149.78;100.00;50264.13;5084988;28;19962;-71
2022/06/09 02:08:36;;;;;;;;;;;;;;;-149.78;100.00;50252.41;5071857;28;19928;-70
2022/06/09 02:11:07;;;;;;;;;;;;;;;-149.78;100.00;50283.69;5086891;28;19932;-71
2022/06/09 02:13:35;;;;;;;;;;;;;;;-149.78;100.00;50287.59;5081805;28;19966;-71
2022/06/09 02:16:05;;;;;;;;;;;;;;;-149.78;100.00;50256.31;5072157;28;19916;-70
2022/06/09 02:18:34;;;;;;;;;;;;;;;-149.78;100.00;50279.78;5083893;28;19922;-70
2022/06/09 02:21:20;;;;;;;;;;;;;;;-149.78;100.00;50260.22;5075727;28;19959;-71
2022/06/09 02:23:47;;;;;;;;;;;;;;;-149.78;100.00;50283.69;5077632;28;19916;-71
2022/06/09 02:26:13;;;;;;;;;;;;;;;-149.78;100.00;50271.97;5082953;28;20344;-71
2022/06/09 02:28:39;;;;;;;;;;;;;;;-149.78;100.00;50254.34;5082683;28;20383;-71
2022/06/09 02:31:05;;;;;;;;;;;;;;;-149.78;100.00;50271.97;5084490;28;19970;-71
2022/06/09 02:33:30;;;;;;;;;;;;;;;-149.78;100.00;50232.84;5085079;28;20011;-71
2022/06/09 02:35:56;;;;;;;;;;;;;;;-149.78;100.00;50264.13;5080127;28;19926;-71
2022/06/09 02:38:21;;;;;;;;;;;;;;;-149.78;100.00;50303.25;5076052;28;20349;-71
2022/06/09 02:40:47;;;;;;;;;;;;;;;-149.78;100.00;50264.13;5081713;28;19916;-71
2022/06/09 02:43:13;;;;;;;;;;;;;;;-149.78;100.00;50283.69;5071177;28;20016;-71
2022/06/09 02:45:38;;;;;;;;;;;;;;;-149.78;100.00;50271.97;5074702;28;19916;-71
2022/06/09 02:48:04;;;;;;;;;;;;;;;-149.78;100.00;50273.91;5072728;28;20272;-70
2022/06/09 02:50:30;;;;;;;;;;;;;;;-149.78;100.00;50283.69;5084493;28;20401;-70
2022/06/09 02:52:56;;;;;;;;;;;;;;;-149.78;100.00;50250.44;5074525;28;19924;-71
2022/06/09 02:55:21;;;;;;;;;;;;;;;-149.78;100.00;50279.78;5077584;28;19924;-70
2022/06/09 02:57:47;;;;;;;;;;;;;;;-149.78;100.00;50256.31;5075786;28;20339;-71
2022/06/09 03:00:14;;;;;;;;;;;;;;;-149.78;100.00;50281.75;5076941;28;20367;-70
2022/06/09 03:02:49;;;;;;;;;;;;;;;-149.78;100.00;50250.44;5070297;28;19960;-70
2022/06/09 03:05:16;;;;;;;;;;;;;;;-149.78;100.00;50314.97;5068324;28;19916;-70
2022/06/09 03:07:41;;;;;;;;;;;;;;;-149.78;100.00;50248.50;5092943;28;19928;-71
2022/06/09 03:10:07;;;;;;;;;;;;;;;-149.78;100.00;50291.50;5083562;28;20363;-71
2022/06/09 03:12:33;;;;;;;;;;;;;;;-149.78;100.00;50303.25;5092363;28;20235;-71
2022/06/09 03:14:58;;;;;;;;;;;;;;;-149.78;100.00;50295.44;5085842;28;19924;-71
2022/06/09 03:17:25;;;;;;;;;;;;;;;-149.78;100.00;50291.50;5091490;28;20007;-71
2022/06/09 03:19:51;;;;;;;;;;;;;;;-149.78;100.00;50283.69;5085251;28;20407;-70
2022/06/09 03:22:17;;;;;;;;;;;;;;;-149.78;100.00;50260.22;5084048;28;19916;-71
2022/06/09 03:24:43;;;;;;;;;;;;;;;-149.78;100.00;50291.50;5081683;28;19924;-72
2022/06/09 03:27:09;;;;;;;;;;;;;;;-149.78;100.00;50271.97;5091087;28;19928;-71
2022/06/09 03:29:34;;;;;;;;;;;;;;;-149.78;100.00;50271.97;5080395;28;19932;-71
2022/06/09 03:32:00;;;;;;;;;;;;;;;-149.78;100.00;50277.81;5085276;28;19916;-71
2022/06/09 03:34:26;;;;;;;;;;;;;;;-149.78;100.00;50248.50;5093626;28;19924;-71
2022/06/09 03:36:51;;;;;;;;;;;;;;;-149.78;100.00;50252.41;5091977;28;20033;-71
2022/06/09 03:39:17;;;;;;;;;;;;;;;-149.78;100.00;50277.81;5073277;28;19970;-71
2022/06/09 03:41:42;;;;;;;;;;;;;;;-149.78;100.00;50277.81;5092784;28;19927;-70
2022/06/09 03:44:08;;;;;;;;;;;;;;;-149.78;100.00;50266.09;5089158;28;19928;-71
2022/06/09 03:46:33;;;;;;;;;;;;;;;-149.78;100.00;50264.13;5080437;28;19921;-71
2022/06/09 03:49:02;;;;;;;;;;;;;;;-149.78;100.00;50260.22;5086158;28;20283;-71
2022/06/09 03:51:29;;;;;;;;;;;;;;;-149.78;100.00;50301.28;5085907;28;20286;-71
2022/06/09 03:53:54;;;;;;;;;;;;;;;-149.78;100.00;50285.66;5076162;28;19909;-71
2022/06/09 03:56:21;;;;;;;;;;;;;;;-149.78;100.00;50293.47;5084761;28;20010;-72
2022/06/09 03:58:46;;;;;;;;;;;;;;;-149.78;100.00;50283.69;5086515;28;20431;-71
2022/06/09 04:01:13;;;;;;;;;;;;;;;-149.78;100.00;50273.91;5083733;28;19999;-71
2022/06/09 04:03:40;;;;;;;;;;;;;;;-149.78;100.00;50289.56;5077305;28;19970;-71
2022/06/09 04:06:21;;;;;;;;;;;;;;;-149.78;100.00;50264.13;5093803;28;19924;-73
2022/06/09 04:08:48;;;;;;;;;;;;;;;-149.78;100.00;50281.75;5090384;28;20373;-73
2022/06/09 04:11:14;;;;;;;;;;;;;;;-149.78;100.00;50268.03;5081986;28;19942;-72
2022/06/09 04:13:40;;;;;;;;;;;;;;;-149.78;100.00;50248.50;5090711;28;19927;-72
2022/06/09 04:16:11;;;;;;;;;;;;;;;-149.78;100.00;50301.28;5083397;28;19924;-73
2022/06/09 04:18:37;;;;;;;;;;;;;;;-149.78;100.00;50252.41;5081246;28;19966;-74
2022/06/09 04:21:03;;;;;;;;;;;;;;;-149.78;100.00;50295.44;5089754;28;19963;-72
2022/06/09 04:23:28;;;;;;;;;;;;;;;-149.78;100.00;50277.81;5074590;28;20315;-72
2022/06/09 04:25:54;;;;;;;;;;;;;;;-149.78;100.00;50270.00;5079507;28;19928;-72
2022/06/09 04:28:20;;;;;;;;;;;;;;;-149.78;100.00;50326.72;5090029;28;20011;-72
2022/06/09 04:30:46;;;;;;;;;;;;;;;-149.78;100.00;50295.44;5093478;28;20348;-73
2022/06/09 04:33:12;;;;;;;;;;;;;;;-149.78;100.00;50295.44;5075721;28;19920;-72
2022/06/09 04:35:38;;;;;;;;;;;;;;;-149.78;100.00;50311.06;5070293;28;19916;-72
2022/06/09 04:38:04;;;;;;;;;;;;;;;-149.78;100.00;50271.97;5084383;28;20355;-72
2022/06/09 04:40:37;;;;;;;;;;;;;;;-149.78;100.00;50279.78;5083954;28;19923;-74
2022/06/09 04:43:03;;;;;;;;;;;;;;;-149.78;100.00;50258.28;5084446;28;19974;-72
2022/06/09 04:45:29;;;;;;;;;;;;;;;-149.78;100.00;50264.13;5091790;28;19961;-73
2022/06/09 04:47:55;;;;;;;;;;;;;;;-149.78;100.00;50264.13;5091407;28;20014;-73
2022/06/09 04:50:20;;;;;;;;;;;;;;;-149.78;100.00;50291.50;5069511;28;19928;-73
2022/06/09 04:52:46;;;;;;;;;;;;;;;-149.78;100.00;50277.81;5072378;28;19923;-73
2022/06/09 04:55:13;;;;;;;;;;;;;;;-149.78;100.00;50299.34;5073163;28;20015;-72
2022/06/09 04:57:38;;;;;;;;;;;;;;;-149.78;100.00;50289.56;5088503;28;19954;-73
2022/06/09 05:00:05;;;;;;;;;;;;;;;-149.78;100.00;50254.34;5082297;28;19927;-72
2022/06/09 05:02:31;;;;;;;;;;;;;;;-149.78;100.00;50295.44;5072796;28;19989;-72
2022/06/09 05:04:56;;;;;;;;;;;;;;;-149.78;100.00;50260.22;5091666;28;19920;-72
2022/06/09 05:07:22;;;;;;;;;;;;;;;-149.78;100.00;50264.13;5084186;28;19920;-72
2022/06/09 05:09:48;;;;;;;;;;;;;;;-149.78;100.00;50279.78;5085850;28;19920;-72
2022/06/09 05:12:14;;;;;;;;;;;;;;;-149.78;100.00;50279.78;5078681;28;19927;-72
2022/06/09 05:14:40;;;;;;;;;;;;;;;-149.78;100.00;50311.06;5082648;28;19966;-73
2022/06/09 05:17:06;;;;;;;;;;;;;;;-149.78;100.00;50268.03;5075955;28;19916;-72
2022/06/09 05:19:32;;;;;;;;;;;;;;;-149.78;100.00;50287.59;5082769;28;20268;-72
2022/06/09 05:21:57;;;;;;;;;;;;;;;-149.78;100.00;50252.41;5076786;28;20287;-73
2022/06/09 05:24:23;;;;;;;;;;;;;;;-149.78;100.00;50283.69;5084044;28;20279;-74
2022/06/09 05:26:49;;;;;;;;;;;;;;;-149.78;100.00;50275.88;5089584;28;19927;-73
2022/06/09 05:29:14;;;;;;;;;;;;;;;-149.78;100.00;50287.59;5076686;28;19998;-73
2022/06/09 05:31:40;;;;;;;;;;;;;;;-149.78;100.00;50283.69;5072719;28;20351;-73
2022/06/09 05:34:06;;;;;;;;;;;;;;;-149.78;100.00;50291.50;5085508;28;20383;-73
2022/06/09 05:36:32;;;;;;;;;;;;;;;-149.78;100.00;50271.97;5083592;28;20306;-73
2022/06/09 05:47:10;;;;;;;;;;;;;;;-149.78;100.00;50285.66;5078697;28;20353;-73
2022/06/09 05:49:38;;;;;;;;;;;;;;;-149.78;100.00;50260.22;5085590;28;20458;-73
2022/06/09 05:52:03;;;;;;;;;;;;;;;-149.78;100.00;50264.13;5087739;28;19920;-73
2022/06/09 05:54:29;;;;;;;;;;;;;;;-149.78;100.00;50252.41;5087518;28;19922;-74
2022/06/09 05:56:55;;;;;;;;;;;;;;;-149.78;100.00;50228.94;5089421;28;20368;-74
2022/06/09 05:59:20;;;;;;;;;;;;;;;-149.78;100.00;50250.44;5070817;28;19923;-74
2022/06/09 06:01:46;;;;;;;;;;;;;;;-149.78;100.00;50260.22;5081129;28;19920;-74
2022/06/09 06:04:11;;;;;;;;;;;;;;;-149.78;100.00;50271.97;5079290;28;20264;-75
2022/06/09 06:06:38;;;;;;;;;;;;;;;-149.78;100.00;50273.91;5088800;28;19947;-76
2022/06/09 06:09:17;;;;;;;;;;;;;;;-149.78;100.00;50262.19;5073879;28;19936;-74
2022/06/09 06:11:43;;;;;;;;;;;;;;;-149.78;100.00;50279.78;5069231;28;20276;-75
2022/06/09 06:14:09;;;;;;;;;;;;;;;-149.78;100.00;50248.50;5073170;28;19923;-74
2022/06/09 06:16:35;;;;;;;;;;;;;;;-149.78;100.00;50248.50;5085236;28;19920;-75
2022/06/09 06:19:00;;;;;;;;;;;;;;;-149.78;100.00;50260.22;5086031;28;19923;-75
2022/06/09 06:21:26;;;;;;;;;;;;;;;-149.78;100.00;50256.31;5073900;28;19973;-76
2022/06/09 06:23:52;;;;;;;;;;;;;;;-149.78;100.00;50225.03;5075686;28;19927;-75
2022/06/09 06:26:17;;;;;;;;;;;;;;;-149.78;100.00;50244.59;5082887;28;19920;-76
2022/06/09 06:28:43;;;;;;;;;;;;;;;-149.78;100.00;50228.94;5079162;28;19975;-77
2022/06/09 06:31:09;;;;;;;;;;;;;;;-149.78;100.00;50215.25;5082849;28;20383;-75
2022/06/09 06:33:35;;;;;;;;;;;;;;;-149.78;100.00;50162.44;5075492;28;19927;-76
2022/06/09 06:36:01;;;;;;;;;;;;;;;-149.78;100.00;50182.00;5088185;28;19916;-76
2022/06/09 06:38:26;;;;;;;;;;;;;;;-149.78;100.00;50164.41;5080901;28;19916;-77
2022/06/09 06:40:54;;;;;;;;;;;;;;;-149.78;100.00;50158.53;5080121;28;20306;-77
2022/06/09 06:43:21;;;;;;;;;;;;;;;-149.78;100.00;50138.97;5081908;28;19942;-75
2022/06/09 06:45:46;;;;;;;;;;;;;;;-149.78;100.00;50150.72;5082282;28;20268;-74
2022/06/09 06:48:12;;;;;;;;;;;;;;;-149.78;100.00;50099.88;5078743;28;19981;-71
2022/06/09 06:50:38;;;;;;;;;;;;;;;-149.78;95.99;50088.13;5084505;28;19924;-72
2022/06/09 06:53:03;;;;;;;;;;;;;;;-149.78;87.26;50080.31;5091500;28;19974;-72
2022/06/09 06:55:29;;;;;;;;;;;;;;;-149.78;76.25;50074.44;5089442;28;19916;-73
2022/06/09 06:57:55;;;;;;;;;;;;;;;-149.78;82.80;50088.13;5089344;28;19953;-72
2022/06/09 07:00:22;;;;;;;;;;;;;;;-149.78;76.38;50058.78;5082057;28;19921;-72
2022/06/09 07:02:49;;;;;;;;;;;;;;;-149.78;74.61;50064.66;5081673;28;19981;-73
2022/06/09 07:05:15;;;;;;;;;;;;;;;-149.78;72.83;50054.88;5083896;28;20578;-73
2022/06/09 07:07:41;;;;;;;;;;;;;;;-149.78;73.66;50092.03;5087005;28;20023;-72
2022/06/09 07:10:07;;;;;;;;;;;;;;;-149.78;64.76;50072.50;5080565;28;20363;-73
2022/06/09 07:12:33;;;;;;;;;;;;;;;-149.78;65.90;50049.03;5084915;28;19930;-73
2022/06/09 07:14:58;;;;;;;;;;;;;;;-149.78;60.74;50017.72;5083197;28;20011;-70
2022/06/09 07:17:24;;;;;;;;;;;;;;;-149.78;56.61;50007.94;5077885;28;19920;-72
2022/06/09 07:19:50;;;;;;;;;;;;;;;-149.78;50.65;49982.53;5087651;28;19965;-71
2022/06/09 07:22:15;;;;;;;;;;;;;;;-149.78;52.56;49982.53;5081739;28;19968;-72
2022/06/09 07:24:42;;;;;;;;;;;;;;;-149.78;48.03;50006.00;5078335;28;19920;-72
2022/06/09 07:27:07;;;;;;;;;;;;;;;-149.78;47.69;49966.88;5094757;28;19923;-72
2022/06/09 07:29:33;;;;;;;;;;;;;;;-149.78;46.47;49998.19;5088678;28;19920;-72
2022/06/09 07:31:58;;;;;;;;;;;;;;;-149.78;45.14;49980.56;5087522;28;20061;-71
2022/06/09 07:34:24;;;;;;;;;;;;;;;-149.78;40.65;49923.88;5079454;28;20053;-71
2022/06/09 07:36:49;;;;;;;;;;;;;;;-149.78;41.62;49949.28;5078362;28;19920;-73
2022/06/09 07:39:15;;;;;;;;;;;;;;;-149.78;39.59;49888.66;5078131;28;19920;-73
2022/06/09 07:41:40;;;;;;;;;;;;;;;-149.78;40.27;49892.56;5080051;28;19927;-73
2022/06/09 07:44:07;;;;;;;;;;;;;;;-149.78;39.50;49902.34;5076976;28;19923;-73
2022/06/09 07:46:33;;;;;;;;;;;;;;;-149.78;37.70;49865.19;5079444;28;19970;-73
2022/06/09 07:48:59;;;;;;;;;;;;;;;-149.78;36.31;49833.91;5077480;28;19920;-71
2022/06/09 07:51:25;;;;;;;;;;;;;;;-149.78;36.19;49814.34;5086280;28;19916;-72
2022/06/09 07:53:52;;;;;;;;;;;;;;;-149.78;33.92;49810.44;5084227;28;19916;-71
2022/06/09 07:56:18;;;;;;;;;;;;;;;-149.78;33.95;49822.19;5078538;28;20061;-73
2022/06/09 07:58:43;;;;;;;;;;;;;;;-149.78;34.63;49814.34;5079799;28;19953;-73
2022/06/09 08:01:10;;;;;;;;;;;;;;;-149.78;34.11;49790.91;5093463;28;19916;-71
2022/06/09 08:03:36;;;;;;;;;;;;;;;-149.78;32.64;49779.16;5076890;28;19970;-70
2022/06/09 08:06:02;;;;;;;;;;;;;;;-149.78;32.84;49814.34;5082884;28;20383;-71
2022/06/09 08:08:27;;;;;;;;;;;;;;;-149.78;32.10;49790.91;5076690;28;19924;-71
2022/06/09 08:10:53;;;;;;;;;;;;;;;-149.78;34.07;49822.19;5076759;28;19970;-71
2022/06/09 08:13:18;;;;;;;;;;;;;;;-149.78;36.10;49861.28;5085789;28;20355;-72
2022/06/09 08:15:45;;;;;;;;;;;;;;;-149.78;36.51;49923.88;5091666;28;19927;-73
2022/06/09 08:18:10;;;;;;;;;;;;;;;-149.78;35.71;49873.03;5087650;28;19960;-73
2022/06/09 08:20:38;;;;;;;;;;;;;;;-149.78;35.02;49904.31;5095069;28;19999;-73
2022/06/09 08:23:08;;;;;;;;;;;;;;;-149.78;37.82;49919.94;5081928;28;19920;-73
2022/06/09 08:25:34;;;;;;;;;;;;;;;-149.78;36.98;49951.25;5080518;28;20009;-73
2022/06/09 08:28:00;;;;;;;;;;;;;;;-149.78;38.90;49919.94;5086785;28;19938;-73
2022/06/09 08:30:25;;;;;;;;;;;;;;;-149.78;42.73;49998.19;5087963;28;19927;-73
2022/06/09 08:32:50;;;;;;;;;;;;;;;-149.78;44.27;49998.19;5073201;28;19963;-72
2022/06/09 08:35:17;;;;;;;;;;;;;;;-149.78;47.15;50009.91;5077533;28;20348;-73
2022/06/09 08:37:43;;;;;;;;;;;;;;;-149.78;46.50;50043.16;5085608;28;20028;-73
2022/06/09 08:40:13;;;;;;;;;;;;;;;-149.78;49.40;50011.88;5088467;28;19960;-72
2022/06/09 08:42:38;;;;;;;;;;;;;;;-149.78;44.83;49994.25;5075915;28;20404;-73
2022/06/09 08:45:08;;;;;;;;;;;;;;;-149.78;41.20;49951.25;5087569;28;19948;-72
2022/06/09 08:47:36;;;;;;;;;;;;;;;-149.78;40.83;49931.69;5080231;28;19947;-73
2022/06/09 08:50:01;;;;;;;;;;;;;;;-149.78;37.89;49904.31;5077000;28;20385;-73
2022/06/09 08:52:39;;;;;;;;;;;;;;;-149.78;38.14;49914.09;5077518;28;19916;-72
2022/06/09 08:55:23;;;;;;;;;;;;;;;-149.78;39.12;49943.41;5074622;28;19920;-73
2022/06/09 08:57:51;;;;;;;;;;;;;;;-149.78;39.02;49947.34;5079834;28;19999;-73
2022/06/09 09:00:19;;;;;;;;;;;;;;;-149.78;38.70;49939.50;5076698;28;20007;-73
2022/06/09 09:02:48;;;;;;;;;;;;;;;-149.78;40.58;49945.38;5080690;28;19919;-73
2022/06/09 09:05:17;;;;;;;;;;;;;;;-149.78;40.18;49900.41;5074198;28;19943;-73
2022/06/09 09:07:48;;;;;;;;;;;;;;;-149.78;40.44;49970.78;5079956;28;19971;-74
2022/06/09 09:10:15;;;;;;;;;;;;;;;-149.78;40.23;49951.25;5098891;28;19923;-73
2022/06/09 09:12:53;;;;;;;;;;;;;;;-149.78;38.69;49916.03;5074928;28;19927;-73
2022/06/09 09:15:22;;;;;;;;;;;;;;;-149.78;38.97;49966.88;5081576;28;19920;-73
2022/06/09 09:17:53;;;;;;;;;;;;;;;-149.78;40.96;49968.84;5080750;28;19924;-73
2022/06/09 09:20:58;;;;;;;;;;;;;;;-149.78;41.86;49976.66;5082139;28;19923;-73
2022/06/09 09:23:31;;;;;;;;;;;;;;;-149.78;47.13;49984.50;5049545;28;19928;-73
2022/06/09 09:25:57;;;;;;;;;;;;;;;-149.78;45.43;49982.53;5044363;28;19921;-73
2022/06/09 09:28:27;;;;;;;;;;;;;;;-149.78;45.71;49970.78;5061611;28;20045;-73
2022/06/09 09:31:12;;;;;;;;;;;;;;;-149.78;44.80;49998.19;5078536;28;19928;-73
2022/06/09 09:33:38;;;;;;;;;;;;;;;-149.78;46.18;50006.00;5071622;28;19916;-73
2022/06/09 09:36:17;;;;;;;;;;;;;;;-149.78;48.55;50002.09;5079818;28;20409;-73
2022/06/09 09:38:47;;;;;;;;;;;;;;;-149.78;48.80;49978.63;5079554;28;19917;-72
2022/06/09 09:41:33;;;;;;;;;;;;;;;-149.78;48.02;50025.56;5074127;28;19916;-74
2022/06/09 09:43:59;;;;;;;;;;;;;;;-149.78;51.50;50017.72;5077667;28;19916;-73
2022/06/09 09:46:31;;;;;;;;;;;;;;;-149.78;50.89;50004.03;5072225;28;19921;-72
2022/06/09 09:48:58;;;;;;;;;;;;;;;-149.78;49.36;49990.34;5072555;28;19926;-73
2022/06/09 09:51:32;;;;;;;;;;;;;;;-149.78;44.57;49986.44;5072495;28;20371;-73
2022/06/09 09:53:57;;;;;;;;;;;;;;;-149.78;40.94;49921.91;5066848;28;20035;-72
2022/06/09 09:56:34;;;;;;;;;;;;;;;-149.78;43.53;49931.69;5087607;28;20469;-73
2022/06/09 09:59:01;;;;;;;;;;;;;;;-149.78;38.97;49931.69;5075278;28;19916;-73
2022/06/09 10:08:35;;;;;;;;;;;;;;;-149.78;40.07;49947.34;5084058;28;19944;-72
2022/06/09 10:10:13;;;;;;;;;;;;;;;-149.78;41.57;49986.44;5071198;28;19924;-73
2022/06/09 10:12:40;;;;;;;;;;;;;;;-149.78;47.44;49959.06;5071549;28;19952;-72
2022/06/09 10:15:09;;;;;;;;;;;;;;;-149.78;45.94;49996.22;5079790;28;19927;-73
2022/06/09 10:17:39;;;;;;;;;;;;;;;-149.78;47.04;50029.47;5082623;28;19927;-72
2022/06/09 10:20:14;;;;;;;;;;;;;;;-149.78;48.79;50019.69;5089651;28;19917;-72
2022/06/09 10:22:41;;;;;;;;;;;;;;;-149.78;47.71;50031.41;5081246;28;19923;-73
2022/06/09 10:25:29;;;;;;;;;;;;;;;-149.78;51.14;50009.91;5079539;28;19916;-73
2022/06/09 10:27:58;;;;;;;;;;;;;;;-149.78;50.36;50033.38;5090801;28;19927;-72
2022/06/09 10:30:29;;;;;;;;;;;;;;;-149.78;53.31;50033.38;5076569;28;19916;-73
2022/06/09 10:33:00;;;;;;;;;;;;;;;-149.78;50.90;50078.34;5081209;28;19916;-72
2022/06/09 10:35:39;;;;;;;;;;;;;;;-149.78;52.20;50033.38;5081680;28;19917;-72
2022/06/09 10:38:13;;;;;;;;;;;;;;;-149.78;56.78;50064.66;5090543;28;19923;-72
2022/06/09 10:40:38;;;;;;;;;;;;;;;-149.78;53.54;50084.22;5092860;28;19923;-73
2022/06/09 10:43:16;;;;;;;;;;;;;;;-149.78;62.71;50033.38;5090544;28;19916;-73
2022/06/09 10:45:42;;;;;;;;;;;;;;;-149.78;52.80;50049.03;5088767;28;19923;-73
2022/06/09 10:56:46;;;;;;;;;;;;;;;-149.78;53.04;50037.28;5093381;28;19927;-73
2022/06/09 10:59:15;;;;;;;;;;;;;;;-149.78;53.78;50062.72;5095159;28;20306;-73
2022/06/09 11:01:41;;;;;;;;;;;;;;;-149.78;53.96;50064.66;5090097;28;20379;-73
2022/06/09 11:04:12;;;;;;;;;;;;;;;-149.78;55.49;50041.19;5091775;28;20429;-71
2022/06/09 11:06:46;;;;;;;;;;;;;;;-149.78;59.02;50070.53;5091329;28;20320;-73
2022/06/09 11:09:11;;;;;;;;;;;;;;;-149.78;57.17;50041.19;5093787;28;19920;-73
2022/06/09 11:11:37;;;;;;;;;;;;;;;-149.78;53.42;50029.47;5093817;28;20346;-72
2022/06/09 11:14:06;;;;;;;;;;;;;;;-149.78;57.47;50015.78;5073753;28;19920;-73
2022/06/09 11:16:38;;;;;;;;;;;;;;;-149.78;59.45;50041.19;5075817;28;19921;-73
2022/06/09 11:19:20;;;;;;;;;;;;;;;-149.78;55.54;50033.38;5085516;28;19916;-73
2022/06/09 11:21:54;;;;;;;;;;;;;;;-149.78;56.77;50045.09;5086244;28;19916;-73
2022/06/09 11:24:29;;;;;;;;;;;;;;;-149.78;57.16;50041.19;5086124;28;20400;-72
2022/06/09 11:27:15;;;;;;;;;;;;;;;-149.78;59.74;50047.06;5085601;28;20379;-73
2022/06/09 11:30:00;;;;;;;;;;;;;;;-149.78;60.31;50033.38;5091429;28;20298;-73
2022/06/09 11:32:28;;;;;;;;;;;;;;;-149.78;62.15;50033.38;5085553;28;19963;-74
2022/06/09 11:34:54;;;;;;;;;;;;;;;-149.78;61.90;50062.72;5075411;28;20405;-73
2022/06/09 11:37:39;;;;;;;;;;;;;;;-149.78;67.32;50086.19;5084615;28;19923;-74
2022/06/09 11:40:05;;;;;;;;;;;;;;;-149.78;67.06;50041.19;5081263;28;19923;-73
2022/06/09 11:42:39;;;;;;;;;;;;;;;-149.78;68.02;50035.34;5067483;28;20351;-73
2022/06/09 11:45:20;;;;;;;;;;;;;;;-149.78;72.37;50033.38;5075803;28;20023;-73
2022/06/09 11:47:46;;;;;;;;;;;;;;;-149.78;69.77;50074.44;5094077;28;20275;-73
2022/06/09 11:50:15;;;;;;;;;;;;;;;-149.78;72.66;50021.63;5091558;28;19931;-74
2022/06/09 11:52:44;;;;;;;;;;;;;;;-149.78;76.26;50054.88;5089527;28;20373;-74
2022/06/09 11:55:28;;;;;;;;;;;;;;;-149.78;79.98;50072.50;5088552;28;20023;-73
2022/06/09 11:57:54;;;;;;;;;;;;;;;-149.78;86.79;50056.84;5089363;28;19923;-73
2022/06/09 12:00:19;;;;;;;;;;;;;;;-149.78;89.66;50060.75;5088223;28;20272;-73
2022/06/09 12:02:48;;;;;;;;;;;;;;;-149.78;91.51;50072.50;5087005;28;19916;-73
2022/06/09 12:05:22;;;;;;;;;;;;;;;-149.78;100.00;50052.94;5083521;28;20416;-73
2022/06/09 12:08:00;;;;;;;;;;;;;;;-149.78;96.27;50088.13;5090089;28;20282;-73
2022/06/09 12:10:29;;;;;;;;;;;;;;;-149.78;100.00;50074.44;5092221;28;20038;-73
2022/06/09 12:13:05;;;;;;;;;;;;;;;-149.78;100.00;50041.19;5085847;28;19924;-73
2022/06/09 12:15:35;;;;;;;;;;;;;;;-149.78;100.00;50045.09;5076278;28;19920;-72
2022/06/09 12:18:06;;;;;;;;;;;;;;;-149.78;100.00;50041.19;5090838;28;19916;-73
2022/06/09 12:20:41;;;;;;;;;;;;;;;-149.78;100.00;50035.34;5081365;28;19928;-73
2022/06/09 12:23:25;;;;;;;;;;;;;;;-149.78;100.00;50060.75;5078193;28;19916;-73
2022/06/09 12:26:09;;;;;;;;;;;;;;;-149.78;95.73;50033.38;5091412;28;20333;-73
2022/06/09 12:28:43;;;;;;;;;;;;;;;-149.78;100.00;50080.31;5093997;28;19923;-73
2022/06/09 12:31:11;;;;;;;;;;;;;;;-149.78;100.00;50058.78;5075069;28;19927;-73
2022/06/09 12:33:38;;;;;;;;;;;;;;;-149.78;100.00;50088.13;5090828;28;19916;-73
2022/06/09 12:36:06;;;;;;;;;;;;;;;-149.78;100.00;50056.84;5102570;28;19924;-72
2022/06/09 12:38:32;;;;;;;;;;;;;;;-149.78;100.00;50076.41;5102239;28;19919;-73
2022/06/09 12:41:30;;;;;;;;;;;;;;;-149.78;100.00;50111.59;5104990;28;20007;-73
2022/06/09 12:44:27;;;;;;;;;;;;;;;-149.78;100.00;50049.03;5092821;28;20656;-72
2022/06/09 12:46:55;;;;;;;;;;;;;;;-149.78;100.00;50076.41;5091676;28;19923;-72
2022/06/09 12:49:31;;;;;;;;;;;;;;;-149.78;100.00;50092.03;5101066;28;19926;-72
2022/06/09 12:51:57;;;;;;;;;;;;;;;-149.78;100.00;50072.50;5090145;28;19920;-72